Skip Navigation LinksHome page > Weather > Current weather Skip Navigation Links

Current Weather

Jakutsk, Russia

For information only: do not use for flight planning or navigation.
Latest weather
Observation time Monday, May 30, 2016 7:30 AM JST
Local time Monday, May 30, 2016 8:00 AM JST
Flight conditions Visual Meteorological Conditions
Winds
Wind direction South-Southeast (150°)
Wind speed 2 mph
Visibility 6.2 mi.
Sky condition
Ceiling unlimited
Cloud layer scattered clouds with cumulonimbus 5,000 ft.
Temperature 55°F
Dewpoint 43°F
Altimeter 29.74 in.Hg
Precipitation
QF 7:27 PM
Derived measurements
Relative humidity 62%
Density altitude 449 ft.
Remarks
No significant changes expected in the next two hours.
METAR UEEE 292230Z 15001MPS 9999 SCT050CB 13/06 Q1007 R23L/09//60 NOSIG RMK QFE747

Settings

Location code

InnerDrive.Weather 4.0.5722.1 Release CLR 4.0.30319.34209
Copyright ©2015 Inner Drive Technology. All rights reserved. Portions Copyright ©1986-2015 David Braverman.

Find weather

Site navigation


Skip Navigation Links

Place info

Page info

PayPal - The safer, easier way to pay online!

Return home.

Copyright ©2016 Inner Drive Technology. Purveyors of fine, hand-crafted computer software. Page printed 2016-05-29T23:00:34 UTC.